sensor_id;sensor_type;location;lat;lon;timestamp;temperature;humidity
62154;DHT22;48140;45.486;9.226;2024-02-21T00:02:19;11.10;99.90
62154;DHT22;48140;45.486;9.226;2024-02-21T00:04:44;11.10;99.90
62154;DHT22;48140;45.486;9.226;2024-02-21T00:07:10;11.00;99.90
62154;DHT22;48140;45.486;9.226;2024-02-21T00:09:36;10.90;99.90
62154;DHT22;48140;45.486;9.226;2024-02-21T00:12:02;10.90;99.90
62154;DHT22;48140;45.486;9.226;2024-02-21T00:14:28;10.90;99.90
62154;DHT22;48140;45.486;9.226;2024-02-21T00:16:54;10.80;99.90
62154;DHT22;48140;45.486;9.226;2024-02-21T00:19:19;10.80;99.90
62154;DHT22;48140;45.486;9.226;2024-02-21T00:21:47;10.80;99.90
62154;DHT22;48140;45.486;9.226;2024-02-21T00:24:12;10.80;99.90
62154;DHT22;48140;45.486;9.226;2024-02-21T00:26:38;10.70;99.90
62154;DHT22;48140;45.486;9.226;2024-02-21T00:29:04;10.80;99.90
62154;DHT22;48140;45.486;9.226;2024-02-21T00:31:30;10.80;99.90
62154;DHT22;48140;45.486;9.226;2024-02-21T00:33:56;10.70;99.90
62154;DHT22;48140;45.486;9.226;2024-02-21T00:36:21;10.70;99.90
62154;DHT22;48140;45.486;9.226;2024-02-21T00:38:47;10.70;99.90
62154;DHT22;48140;45.486;9.226;2024-02-21T00:41:12;10.60;99.90
62154;DHT22;48140;45.486;9.226;2024-02-21T00:43:38;10.60;99.90
62154;DHT22;48140;45.486;9.226;2024-02-21T00:46:05;10.60;99.90
62154;DHT22;48140;45.486;9.226;2024-02-21T00:48:30;10.60;99.90
62154;DHT22;48140;45.486;9.226;2024-02-21T00:50:56;10.50;99.90
62154;DHT22;48140;45.486;9.226;2024-02-21T00:53:22;10.40;99.90
62154;DHT22;48140;45.486;9.226;2024-02-21T00:55:47;10.50;99.90
62154;DHT22;48140;45.486;9.226;2024-02-21T00:58:13;10.60;99.90
62154;DHT22;48140;45.486;9.226;2024-02-21T01:00:38;10.50;99.90
62154;DHT22;48140;45.486;9.226;2024-02-21T01:03:04;10.50;99.90
62154;DHT22;48140;45.486;9.226;2024-02-21T01:05:29;10.50;99.90
62154;DHT22;48140;45.486;9.226;2024-02-21T01:07:56;10.60;99.90
62154;DHT22;48140;45.486;9.226;2024-02-21T01:10:21;10.50;99.90
62154;DHT22;48140;45.486;9.226;2024-02-21T01:12:48;10.50;99.90
62154;DHT22;48140;45.486;9.226;2024-02-21T01:15:13;10.40;99.90
62154;DHT22;48140;45.486;9.226;2024-02-21T01:17:39;10.40;99.90
62154;DHT22;48140;45.486;9.226;2024-02-21T01:20:06;10.40;99.90
62154;DHT22;48140;45.486;9.226;2024-02-21T01:22:32;10.40;99.90
62154;DHT22;48140;45.486;9.226;2024-02-21T01:24:57;10.40;99.90
62154;DHT22;48140;45.486;9.226;2024-02-21T01:27:23;10.30;99.90
62154;DHT22;48140;45.486;9.226;2024-02-21T01:29:48;10.40;99.90
62154;DHT22;48140;45.486;9.226;2024-02-21T01:32:15;10.40;99.90
62154;DHT22;48140;45.486;9.226;2024-02-21T01:34:40;10.40;99.90
62154;DHT22;48140;45.486;9.226;2024-02-21T01:37:06;10.40;99.90
62154;DHT22;48140;45.486;9.226;2024-02-21T01:39:33;10.40;99.90
62154;DHT22;48140;45.486;9.226;2024-02-21T01:41:59;10.30;99.90
62154;DHT22;48140;45.486;9.226;2024-02-21T01:44:24;10.30;99.90
62154;DHT22;48140;45.486;9.226;2024-02-21T01:46:50;10.30;99.90
62154;DHT22;48140;45.486;9.226;2024-02-21T01:49:17;10.40;99.90
62154;DHT22;48140;45.486;9.226;2024-02-21T01:51:42;10.40;99.90
62154;DHT22;48140;45.486;9.226;2024-02-21T01:54:08;10.30;99.90
62154;DHT22;48140;45.486;9.226;2024-02-21T01:56:34;10.30;99.90
62154;DHT22;48140;45.486;9.226;2024-02-21T01:58:59;10.20;99.90
62154;DHT22;48140;45.486;9.226;2024-02-21T02:01:25;10.20;99.90
62154;DHT22;48140;45.486;9.226;2024-02-21T02:03:50;10.20;99.90
62154;DHT22;48140;45.486;9.226;2024-02-21T02:06:16;10.20;99.90
62154;DHT22;48140;45.486;9.226;2024-02-21T02:08:41;10.10;99.90
62154;DHT22;48140;45.486;9.226;2024-02-21T02:11:10;10.20;99.90
62154;DHT22;48140;45.486;9.226;2024-02-21T02:13:35;10.20;99.90
62154;DHT22;48140;45.486;9.226;2024-02-21T02:16:01;10.20;99.90
62154;DHT22;48140;45.486;9.226;2024-02-21T02:18:26;10.20;99.90
62154;DHT22;48140;45.486;9.226;2024-02-21T02:20:52;10.20;99.90
62154;DHT22;48140;45.486;9.226;2024-02-21T02:25:50;10.20;99.90
62154;DHT22;48140;45.486;9.226;2024-02-21T02:28:17;10.20;99.90
62154;DHT22;48140;45.486;9.226;2024-02-21T02:30:43;10.20;99.90
62154;DHT22;48140;45.486;9.226;2024-02-21T02:33:09;10.20;99.90
62154;DHT22;48140;45.486;9.226;2024-02-21T02:35:35;10.20;99.90
62154;DHT22;48140;45.486;9.226;2024-02-21T02:38:02;10.20;99.90
62154;DHT22;48140;45.486;9.226;2024-02-21T02:40:27;10.10;99.90
62154;DHT22;48140;45.486;9.226;2024-02-21T02:42:53;10.20;99.90
62154;DHT22;48140;45.486;9.226;2024-02-21T02:45:21;10.10;99.90
62154;DHT22;48140;45.486;9.226;2024-02-21T02:47:47;10.20;99.90
62154;DHT22;48140;45.486;9.226;2024-02-21T02:50:13;10.20;99.90
62154;DHT22;48140;45.486;9.226;2024-02-21T02:52:39;10.20;99.90
62154;DHT22;48140;45.486;9.226;2024-02-21T02:55:05;10.10;99.90
62154;DHT22;48140;45.486;9.226;2024-02-21T02:57:30;10.10;99.90
62154;DHT22;48140;45.486;9.226;2024-02-21T02:59:56;10.10;99.90
62154;DHT22;48140;45.486;9.226;2024-02-21T03:02:21;10.20;99.90
62154;DHT22;48140;45.486;9.226;2024-02-21T03:04:47;10.10;99.90
62154;DHT22;48140;45.486;9.226;2024-02-21T03:07:13;10.10;99.90
62154;DHT22;48140;45.486;9.226;2024-02-21T03:09:39;10.10;99.90
62154;DHT22;48140;45.486;9.226;2024-02-21T03:12:05;10.10;99.90
62154;DHT22;48140;45.486;9.226;2024-02-21T03:14:34;10.00;99.90
62154;DHT22;48140;45.486;9.226;2024-02-21T03:16:59;10.00;99.90
62154;DHT22;48140;45.486;9.226;2024-02-21T03:19:25;10.00;99.90
62154;DHT22;48140;45.486;9.226;2024-02-21T03:21:51;10.00;99.00
62154;DHT22;48140;45.486;9.226;2024-02-21T03:24:18;9.90;99.30
62154;DHT22;48140;45.486;9.226;2024-02-21T03:26:43;9.90;98.70
62154;DHT22;48140;45.486;9.226;2024-02-21T03:29:10;9.90;99.10
62154;DHT22;48140;45.486;9.226;2024-02-21T03:31:35;9.80;98.90
62154;DHT22;48140;45.486;9.226;2024-02-21T03:34:01;9.90;98.30
62154;DHT22;48140;45.486;9.226;2024-02-21T03:36:27;9.80;97.60
62154;DHT22;48140;45.486;9.226;2024-02-21T03:38:53;9.80;97.20
62154;DHT22;48140;45.486;9.226;2024-02-21T03:41:19;9.80;97.40
62154;DHT22;48140;45.486;9.226;2024-02-21T03:43:45;9.80;96.60
62154;DHT22;48140;45.486;9.226;2024-02-21T03:46:10;9.80;96.40
62154;DHT22;48140;45.486;9.226;2024-02-21T03:48:36;9.80;94.60
62154;DHT22;48140;45.486;9.226;2024-02-21T03:51:02;9.70;94.90
62154;DHT22;48140;45.486;9.226;2024-02-21T03:53:28;9.70;95.30
62154;DHT22;48140;45.486;9.226;2024-02-21T03:55:54;9.70;94.70
62154;DHT22;48140;45.486;9.226;2024-02-21T03:58:20;9.70;94.70
62154;DHT22;48140;45.486;9.226;2024-02-21T04:00:46;9.70;93.70
62154;DHT22;48140;45.486;9.226;2024-02-21T04:03:11;9.70;93.90
62154;DHT22;48140;45.486;9.226;2024-02-21T04:05:37;9.70;94.30
62154;DHT22;48140;45.486;9.226;2024-02-21T04:08:05;9.60;94.00
62154;DHT22;48140;45.486;9.226;2024-02-21T04:10:31;9.60;94.80
62154;DHT22;48140;45.486;9.226;2024-02-21T04:12:57;9.60;94.30
62154;DHT22;48140;45.486;9.226;2024-02-21T04:15:22;9.60;94.40
62154;DHT22;48140;45.486;9.226;2024-02-21T04:17:48;9.60;94.00
62154;DHT22;48140;45.486;9.226;2024-02-21T04:20:15;9.60;94.30
62154;DHT22;48140;45.486;9.226;2024-02-21T04:22:42;9.50;94.40
62154;DHT22;48140;45.486;9.226;2024-02-21T04:25:08;9.60;94.20
62154;DHT22;48140;45.486;9.226;2024-02-21T04:27:33;9.50;93.10
62154;DHT22;48140;45.486;9.226;2024-02-21T04:29:59;9.50;93.30
62154;DHT22;48140;45.486;9.226;2024-02-21T04:32:25;9.50;92.10
62154;DHT22;48140;45.486;9.226;2024-02-21T04:34:52;9.40;92.40
62154;DHT22;48140;45.486;9.226;2024-02-21T04:37:18;9.30;92.80
62154;DHT22;48140;45.486;9.226;2024-02-21T04:39:44;9.30;93.10
62154;DHT22;48140;45.486;9.226;2024-02-21T04:42:09;9.30;92.80
62154;DHT22;48140;45.486;9.226;2024-02-21T04:44:35;9.20;92.80
62154;DHT22;48140;45.486;9.226;2024-02-21T04:47:01;9.30;93.40
62154;DHT22;48140;45.486;9.226;2024-02-21T04:49:29;9.20;93.30
62154;DHT22;48140;45.486;9.226;2024-02-21T04:51:54;9.20;93.90
62154;DHT22;48140;45.486;9.226;2024-02-21T04:54:20;9.30;93.40
62154;DHT22;48140;45.486;9.226;2024-02-21T04:56:45;9.30;93.10
62154;DHT22;48140;45.486;9.226;2024-02-21T04:59:11;9.30;93.30
62154;DHT22;48140;45.486;9.226;2024-02-21T05:01:36;9.20;93.20
62154;DHT22;48140;45.486;9.226;2024-02-21T05:04:02;9.30;93.30
62154;DHT22;48140;45.486;9.226;2024-02-21T05:06:28;9.20;93.70
62154;DHT22;48140;45.486;9.226;2024-02-21T05:08:53;9.20;93.60
62154;DHT22;48140;45.486;9.226;2024-02-21T05:11:21;9.20;93.40
62154;DHT22;48140;45.486;9.226;2024-02-21T05:13:46;9.30;93.40
62154;DHT22;48140;45.486;9.226;2024-02-21T05:16:12;9.20;93.60
62154;DHT22;48140;45.486;9.226;2024-02-21T05:18:37;9.20;93.70
62154;DHT22;48140;45.486;9.226;2024-02-21T05:21:03;9.20;93.50
62154;DHT22;48140;45.486;9.226;2024-02-21T05:23:28;9.20;93.60
62154;DHT22;48140;45.486;9.226;2024-02-21T05:25:54;9.20;93.40
62154;DHT22;48140;45.486;9.226;2024-02-21T05:28:19;9.20;92.60
62154;DHT22;48140;45.486;9.226;2024-02-21T05:30:45;9.20;93.10
62154;DHT22;48140;45.486;9.226;2024-02-21T05:33:10;9.20;93.00
62154;DHT22;48140;45.486;9.226;2024-02-21T05:35:37;9.20;92.60
62154;DHT22;48140;45.486;9.226;2024-02-21T05:38:03;9.20;92.90
62154;DHT22;48140;45.486;9.226;2024-02-21T05:40:36;9.20;92.50
62154;DHT22;48140;45.486;9.226;2024-02-21T05:43:02;9.20;92.50
62154;DHT22;48140;45.486;9.226;2024-02-21T05:45:27;9.20;92.80
62154;DHT22;48140;45.486;9.226;2024-02-21T05:47:53;9.20;93.10
62154;DHT22;48140;45.486;9.226;2024-02-21T05:50:18;9.10;92.80
62154;DHT22;48140;45.486;9.226;2024-02-21T05:52:44;9.10;92.90
62154;DHT22;48140;45.486;9.226;2024-02-21T05:55:10;9.10;90.00
62154;DHT22;48140;45.486;9.226;2024-02-21T05:57:35;9.00;88.60
62154;DHT22;48140;45.486;9.226;2024-02-21T06:00:03;8.90;88.20
62154;DHT22;48140;45.486;9.226;2024-02-21T06:02:28;8.80;86.70
62154;DHT22;48140;45.486;9.226;2024-02-21T06:04:54;8.90;87.10
62154;DHT22;48140;45.486;9.226;2024-02-21T06:07:19;8.80;87.50
62154;DHT22;48140;45.486;9.226;2024-02-21T06:09:45;8.90;88.80
62154;DHT22;48140;45.486;9.226;2024-02-21T06:12:10;8.80;89.10
62154;DHT22;48140;45.486;9.226;2024-02-21T06:14:36;8.80;88.30
62154;DHT22;48140;45.486;9.226;2024-02-21T06:17:02;8.80;89.10
62154;DHT22;48140;45.486;9.226;2024-02-21T06:19:28;8.80;88.40
62154;DHT22;48140;45.486;9.226;2024-02-21T06:21:53;8.80;85.50
62154;DHT22;48140;45.486;9.226;2024-02-21T06:24:19;8.80;84.60
62154;DHT22;48140;45.486;9.226;2024-02-21T06:26:44;8.80;83.20
62154;DHT22;48140;45.486;9.226;2024-02-21T06:29:13;8.70;81.80
62154;DHT22;48140;45.486;9.226;2024-02-21T06:31:39;8.70;81.70
62154;DHT22;48140;45.486;9.226;2024-02-21T06:34:05;8.70;81.80
62154;DHT22;48140;45.486;9.226;2024-02-21T06:36:30;8.70;79.90
62154;DHT22;48140;45.486;9.226;2024-02-21T06:38:56;8.70;79.50
62154;DHT22;48140;45.486;9.226;2024-02-21T06:41:21;8.70;80.30
62154;DHT22;48140;45.486;9.226;2024-02-21T06:43:47;8.80;80.40
62154;DHT22;48140;45.486;9.226;2024-02-21T06:46:22;8.80;79.90
62154;DHT22;48140;45.486;9.226;2024-02-21T06:48:48;8.90;79.50
62154;DHT22;48140;45.486;9.226;2024-02-21T06:51:14;8.90;78.80
62154;DHT22;48140;45.486;9.226;2024-02-21T06:53:39;8.90;79.30
62154;DHT22;48140;45.486;9.226;2024-02-21T06:56:05;8.90;80.20
62154;DHT22;48140;45.486;9.226;2024-02-21T06:58:31;9.00;80.90
62154;DHT22;48140;45.486;9.226;2024-02-21T07:00:56;9.10;81.20
62154;DHT22;48140;45.486;9.226;2024-02-21T07:03:22;9.20;88.10
62154;DHT22;48140;45.486;9.226;2024-02-21T07:05:49;9.40;85.60
62154;DHT22;48140;45.486;9.226;2024-02-21T07:08:15;9.40;81.40
62154;DHT22;48140;45.486;9.226;2024-02-21T07:10:41;9.50;80.70
62154;DHT22;48140;45.486;9.226;2024-02-21T07:13:06;9.60;81.10
62154;DHT22;48140;45.486;9.226;2024-02-21T07:15:33;9.70;79.80
62154;DHT22;48140;45.486;9.226;2024-02-21T07:17:58;9.70;79.60
62154;DHT22;48140;45.486;9.226;2024-02-21T07:20:24;9.80;79.60
62154;DHT22;48140;45.486;9.226;2024-02-21T07:22:50;9.90;81.60
62154;DHT22;48140;45.486;9.226;2024-02-21T07:25:15;10.00;80.80
62154;DHT22;48140;45.486;9.226;2024-02-21T07:27:41;10.10;80.50
62154;DHT22;48140;45.486;9.226;2024-02-21T07:30:07;10.20;80.40
62154;DHT22;48140;45.486;9.226;2024-02-21T07:32:33;10.20;80.60
62154;DHT22;48140;45.486;9.226;2024-02-21T07:34:58;10.20;80.10
62154;DHT22;48140;45.486;9.226;2024-02-21T07:37:24;10.30;80.10
62154;DHT22;48140;45.486;9.226;2024-02-21T07:39:49;10.30;79.80
62154;DHT22;48140;45.486;9.226;2024-02-21T07:42:15;10.40;78.90
62154;DHT22;48140;45.486;9.226;2024-02-21T07:44:41;10.50;78.90
62154;DHT22;48140;45.486;9.226;2024-02-21T07:47:06;10.60;79.90
62154;DHT22;48140;45.486;9.226;2024-02-21T07:49:32;10.60;79.10
62154;DHT22;48140;45.486;9.226;2024-02-21T07:52:00;10.70;78.40
62154;DHT22;48140;45.486;9.226;2024-02-21T07:54:25;10.70;75.90
62154;DHT22;48140;45.486;9.226;2024-02-21T07:56:51;10.60;75.00
62154;DHT22;48140;45.486;9.226;2024-02-21T07:59:16;10.80;74.50
62154;DHT22;48140;45.486;9.226;2024-02-21T08:01:42;10.80;73.60
62154;DHT22;48140;45.486;9.226;2024-02-21T08:04:09;11.00;72.60
62154;DHT22;48140;45.486;9.226;2024-02-21T08:06:35;11.00;73.40
62154;DHT22;48140;45.486;9.226;2024-02-21T08:09:00;11.00;73.00
62154;DHT22;48140;45.486;9.226;2024-02-21T08:11:26;11.10;72.80
62154;DHT22;48140;45.486;9.226;2024-02-21T08:13:51;11.10;71.50
62154;DHT22;48140;45.486;9.226;2024-02-21T08:16:17;11.10;71.80
62154;DHT22;48140;45.486;9.226;2024-02-21T08:18:45;11.20;71.80
62154;DHT22;48140;45.486;9.226;2024-02-21T08:21:11;11.30;70.60
62154;DHT22;48140;45.486;9.226;2024-02-21T08:23:36;11.30;70.20
62154;DHT22;48140;45.486;9.226;2024-02-21T08:26:05;11.40;70.20
62154;DHT22;48140;45.486;9.226;2024-02-21T08:28:30;11.60;69.80
62154;DHT22;48140;45.486;9.226;2024-02-21T08:30:56;11.60;68.20
62154;DHT22;48140;45.486;9.226;2024-02-21T08:33:22;11.60;67.00
62154;DHT22;48140;45.486;9.226;2024-02-21T08:35:51;11.90;67.30
62154;DHT22;48140;45.486;9.226;2024-02-21T08:38:16;12.20;67.30
62154;DHT22;48140;45.486;9.226;2024-02-21T08:40:42;12.10;64.70
62154;DHT22;48140;45.486;9.226;2024-02-21T08:43:07;12.20;65.50
62154;DHT22;48140;45.486;9.226;2024-02-21T08:45:33;12.40;65.70
62154;DHT22;48140;45.486;9.226;2024-02-21T08:47:58;12.50;66.40
62154;DHT22;48140;45.486;9.226;2024-02-21T08:50:24;12.90;64.30
62154;DHT22;48140;45.486;9.226;2024-02-21T08:52:50;13.00;63.60
62154;DHT22;48140;45.486;9.226;2024-02-21T08:55:15;13.20;60.80
62154;DHT22;48140;45.486;9.226;2024-02-21T08:57:41;13.40;58.70
62154;DHT22;48140;45.486;9.226;2024-02-21T09:00:06;13.60;57.90
62154;DHT22;48140;45.486;9.226;2024-02-21T09:02:41;13.60;57.50
62154;DHT22;48140;45.486;9.226;2024-02-21T09:05:08;13.70;56.30
62154;DHT22;48140;45.486;9.226;2024-02-21T09:07:34;13.70;56.40
62154;DHT22;48140;45.486;9.226;2024-02-21T09:09:59;13.90;55.90
62154;DHT22;48140;45.486;9.226;2024-02-21T09:12:26;14.00;52.90
62154;DHT22;48140;45.486;9.226;2024-02-21T09:14:51;14.20;51.10
62154;DHT22;48140;45.486;9.226;2024-02-21T09:17:17;14.40;50.50
62154;DHT22;48140;45.486;9.226;2024-02-21T09:19:43;14.50;47.80
62154;DHT22;48140;45.486;9.226;2024-02-21T09:22:09;14.60;48.40
62154;DHT22;48140;45.486;9.226;2024-02-21T09:24:34;14.90;47.70
62154;DHT22;48140;45.486;9.226;2024-02-21T09:27:00;14.80;46.60
62154;DHT22;48140;45.486;9.226;2024-02-21T09:29:25;14.90;47.00
62154;DHT22;48140;45.486;9.226;2024-02-21T09:31:51;15.10;46.10
62154;DHT22;48140;45.486;9.226;2024-02-21T09:34:17;15.50;45.50
62154;DHT22;48140;45.486;9.226;2024-02-21T09:36:43;15.20;45.80
62154;DHT22;48140;45.486;9.226;2024-02-21T09:39:10;15.80;45.10
62154;DHT22;48140;45.486;9.226;2024-02-21T09:41:41;15.90;45.00
62154;DHT22;48140;45.486;9.226;2024-02-21T09:44:09;15.90;44.70
62154;DHT22;48140;45.486;9.226;2024-02-21T09:46:46;16.10;44.70
62154;DHT22;48140;45.486;9.226;2024-02-21T09:51:40;16.00;43.10
62154;DHT22;48140;45.486;9.226;2024-02-21T09:54:07;15.80;42.90
62154;DHT22;48140;45.486;9.226;2024-02-21T09:56:33;16.10;43.20
62154;DHT22;48140;45.486;9.226;2024-02-21T09:58:58;16.20;41.90
62154;DHT22;48140;45.486;9.226;2024-02-21T10:01:24;16.30;42.30
62154;DHT22;48140;45.486;9.226;2024-02-21T10:03:50;16.90;40.80
62154;DHT22;48140;45.486;9.226;2024-02-21T10:06:15;17.20;40.50
62154;DHT22;48140;45.486;9.226;2024-02-21T10:08:41;16.70;39.80
62154;DHT22;48140;45.486;9.226;2024-02-21T10:11:06;16.60;40.00
62154;DHT22;48140;45.486;9.226;2024-02-21T10:13:34;16.80;39.80
62154;DHT22;48140;45.486;9.226;2024-02-21T10:16:09;17.10;39.70
62154;DHT22;48140;45.486;9.226;2024-02-21T10:18:35;16.70;39.70
62154;DHT22;48140;45.486;9.226;2024-02-21T10:21:01;17.00;39.20
62154;DHT22;48140;45.486;9.226;2024-02-21T10:23:27;16.80;39.80
62154;DHT22;48140;45.486;9.226;2024-02-21T10:25:52;16.90;41.10
62154;DHT22;48140;45.486;9.226;2024-02-21T10:28:18;17.00;41.10
62154;DHT22;48140;45.486;9.226;2024-02-21T10:30:51;16.90;41.70
62154;DHT22;48140;45.486;9.226;2024-02-21T10:33:17;17.00;42.70
62154;DHT22;48140;45.486;9.226;2024-02-21T10:35:46;17.40;42.80
62154;DHT22;48140;45.486;9.226;2024-02-21T10:38:12;17.40;42.90
62154;DHT22;48140;45.486;9.226;2024-02-21T10:40:38;17.30;43.00
62154;DHT22;48140;45.486;9.226;2024-02-21T10:43:03;17.00;43.90
62154;DHT22;48140;45.486;9.226;2024-02-21T10:45:31;16.90;43.70
62154;DHT22;48140;45.486;9.226;2024-02-21T10:48:08;17.20;43.90
62154;DHT22;48140;45.486;9.226;2024-02-21T10:50:36;17.10;44.40
62154;DHT22;48140;45.486;9.226;2024-02-21T10:53:09;17.20;44.40
62154;DHT22;48140;45.486;9.226;2024-02-21T10:55:41;17.50;43.80
62154;DHT22;48140;45.486;9.226;2024-02-21T10:58:10;17.60;43.80
62154;DHT22;48140;45.486;9.226;2024-02-21T11:00:36;17.60;43.30
62154;DHT22;48140;45.486;9.226;2024-02-21T11:03:02;18.30;42.70
62154;DHT22;48140;45.486;9.226;2024-02-21T11:05:28;18.60;42.60
62154;DHT22;48140;45.486;9.226;2024-02-21T11:07:55;18.50;41.90
62154;DHT22;48140;45.486;9.226;2024-02-21T11:10:22;18.40;41.10
62154;DHT22;48140;45.486;9.226;2024-02-21T11:12:48;18.30;42.50
62154;DHT22;48140;45.486;9.226;2024-02-21T11:15:13;18.90;42.30
62154;DHT22;48140;45.486;9.226;2024-02-21T11:17:40;19.20;41.70
62154;DHT22;48140;45.486;9.226;2024-02-21T11:20:12;18.90;42.00
62154;DHT22;48140;45.486;9.226;2024-02-21T11:22:44;18.60;44.30
62154;DHT22;48140;45.486;9.226;2024-02-21T11:25:09;19.00;43.80
62154;DHT22;48140;45.486;9.226;2024-02-21T11:27:38;19.00;44.00
62154;DHT22;48140;45.486;9.226;2024-02-21T11:30:04;18.80;44.80
62154;DHT22;48140;45.486;9.226;2024-02-21T11:32:30;19.10;44.70
62154;DHT22;48140;45.486;9.226;2024-02-21T11:35:05;19.90;43.80
62154;DHT22;48140;45.486;9.226;2024-02-21T11:37:31;19.90;43.20
62154;DHT22;48140;45.486;9.226;2024-02-21T11:40:02;20.30;42.40
62154;DHT22;48140;45.486;9.226;2024-02-21T11:42:28;20.30;42.30
62154;DHT22;48140;45.486;9.226;2024-02-21T11:44:54;20.70;41.70
62154;DHT22;48140;45.486;9.226;2024-02-21T11:47:23;20.70;41.80
62154;DHT22;48140;45.486;9.226;2024-02-21T11:49:49;20.60;42.50
62154;DHT22;48140;45.486;9.226;2024-02-21T11:52:21;20.40;43.10
62154;DHT22;48140;45.486;9.226;2024-02-21T11:54:50;20.20;43.50
62154;DHT22;48140;45.486;9.226;2024-02-21T11:57:16;20.40;43.30
62154;DHT22;48140;45.486;9.226;2024-02-21T11:59:42;20.90;42.90
62154;DHT22;48140;45.486;9.226;2024-02-21T12:02:09;20.60;43.10
62154;DHT22;48140;45.486;9.226;2024-02-21T12:04:35;20.70;42.80
62154;DHT22;48140;45.486;9.226;2024-02-21T12:07:01;21.00;43.00
62154;DHT22;48140;45.486;9.226;2024-02-21T12:09:29;21.10;42.50
62154;DHT22;48140;45.486;9.226;2024-02-21T12:12:02;21.40;41.90
62154;DHT22;48140;45.486;9.226;2024-02-21T12:14:31;21.20;42.50
62154;DHT22;48140;45.486;9.226;2024-02-21T12:16:57;21.40;42.70
62154;DHT22;48140;45.486;9.226;2024-02-21T12:19:23;21.10;43.30
62154;DHT22;48140;45.486;9.226;2024-02-21T12:21:48;21.30;42.30
62154;DHT22;48140;45.486;9.226;2024-02-21T12:24:20;21.50;42.90
62154;DHT22;48140;45.486;9.226;2024-02-21T12:26:46;21.80;42.70
62154;DHT22;48140;45.486;9.226;2024-02-21T12:29:12;21.20;43.80
62154;DHT22;48140;45.486;9.226;2024-02-21T12:31:37;21.20;44.50
62154;DHT22;48140;45.486;9.226;2024-02-21T12:34:03;20.90;44.80
62154;DHT22;48140;45.486;9.226;2024-02-21T12:36:30;20.60;45.60
62154;DHT22;48140;45.486;9.226;2024-02-21T12:38:55;20.70;46.10
62154;DHT22;48140;45.486;9.226;2024-02-21T12:41:21;20.80;45.90
62154;DHT22;48140;45.486;9.226;2024-02-21T12:43:47;20.80;46.60
62154;DHT22;48140;45.486;9.226;2024-02-21T12:46:12;21.00;46.70
62154;DHT22;48140;45.486;9.226;2024-02-21T12:48:38;20.70;46.50
62154;DHT22;48140;45.486;9.226;2024-02-21T12:51:05;20.50;46.70
62154;DHT22;48140;45.486;9.226;2024-02-21T12:53:31;20.40;47.50
62154;DHT22;48140;45.486;9.226;2024-02-21T12:55:57;20.80;47.30
62154;DHT22;48140;45.486;9.226;2024-02-21T12:58:22;20.70;47.10
62154;DHT22;48140;45.486;9.226;2024-02-21T13:00:48;20.10;48.80
62154;DHT22;48140;45.486;9.226;2024-02-21T13:03:13;20.80;47.60
62154;DHT22;48140;45.486;9.226;2024-02-21T13:05:39;20.70;47.20
62154;DHT22;48140;45.486;9.226;2024-02-21T13:08:05;20.90;46.80
62154;DHT22;48140;45.486;9.226;2024-02-21T13:10:31;20.90;46.90
62154;DHT22;48140;45.486;9.226;2024-02-21T13:13:00;21.30;46.00
62154;DHT22;48140;45.486;9.226;2024-02-21T13:15:25;21.50;45.70
62154;DHT22;48140;45.486;9.226;2024-02-21T13:17:53;21.70;45.00
62154;DHT22;48140;45.486;9.226;2024-02-21T13:20:19;22.20;43.70
62154;DHT22;48140;45.486;9.226;2024-02-21T13:22:45;21.60;44.30
62154;DHT22;48140;45.486;9.226;2024-02-21T13:25:10;21.60;44.70
62154;DHT22;48140;45.486;9.226;2024-02-21T13:27:39;22.60;43.10
62154;DHT22;48140;45.486;9.226;2024-02-21T13:30:04;22.40;43.20
62154;DHT22;48140;45.486;9.226;2024-02-21T13:32:32;22.60;43.00
62154;DHT22;48140;45.486;9.226;2024-02-21T13:34:58;22.50;42.70
62154;DHT22;48140;45.486;9.226;2024-02-21T13:37:26;22.50;42.70
62154;DHT22;48140;45.486;9.226;2024-02-21T13:39:52;21.70;43.40
62154;DHT22;48140;45.486;9.226;2024-02-21T13:42:18;21.50;44.50
62154;DHT22;48140;45.486;9.226;2024-02-21T13:44:44;20.60;46.10
62154;DHT22;48140;45.486;9.226;2024-02-21T13:47:10;20.70;46.20
62154;DHT22;48140;45.486;9.226;2024-02-21T13:49:36;21.00;46.50
62154;DHT22;48140;45.486;9.226;2024-02-21T13:52:02;20.80;46.00
62154;DHT22;48140;45.486;9.226;2024-02-21T13:54:27;20.60;46.70
62154;DHT22;48140;45.486;9.226;2024-02-21T13:56:53;20.30;47.30
62154;DHT22;48140;45.486;9.226;2024-02-21T13:59:18;20.40;47.40
62154;DHT22;48140;45.486;9.226;2024-02-21T14:01:44;20.60;47.00
62154;DHT22;48140;45.486;9.226;2024-02-21T14:04:10;20.90;46.70
62154;DHT22;48140;45.486;9.226;2024-02-21T14:06:35;21.20;46.00
62154;DHT22;48140;45.486;9.226;2024-02-21T14:09:02;21.10;45.20
62154;DHT22;48140;45.486;9.226;2024-02-21T14:11:28;21.00;46.60
62154;DHT22;48140;45.486;9.226;2024-02-21T14:13:54;21.10;45.60
62154;DHT22;48140;45.486;9.226;2024-02-21T14:16:22;21.10;45.60
62154;DHT22;48140;45.486;9.226;2024-02-21T14:18:48;21.20;46.20
62154;DHT22;48140;45.486;9.226;2024-02-21T14:21:13;21.50;45.60
62154;DHT22;48140;45.486;9.226;2024-02-21T14:23:39;21.60;44.60
62154;DHT22;48140;45.486;9.226;2024-02-21T14:26:05;21.40;44.80
62154;DHT22;48140;45.486;9.226;2024-02-21T14:28:31;21.50;45.00
62154;DHT22;48140;45.486;9.226;2024-02-21T14:30:59;21.00;45.90
62154;DHT22;48140;45.486;9.226;2024-02-21T14:33:26;20.70;46.00
62154;DHT22;48140;45.486;9.226;2024-02-21T14:35:52;20.60;46.90
62154;DHT22;48140;45.486;9.226;2024-02-21T14:38:17;20.40;46.80
62154;DHT22;48140;45.486;9.226;2024-02-21T14:40:44;20.30;47.80
62154;DHT22;48140;45.486;9.226;2024-02-21T14:43:09;20.30;47.20
62154;DHT22;48140;45.486;9.226;2024-02-21T14:45:35;20.10;48.80
62154;DHT22;48140;45.486;9.226;2024-02-21T14:48:00;19.90;48.50
62154;DHT22;48140;45.486;9.226;2024-02-21T14:50:26;20.00;48.80
62154;DHT22;48140;45.486;9.226;2024-02-21T14:52:52;20.10;49.30
62154;DHT22;48140;45.486;9.226;2024-02-21T14:55:17;20.00;48.80
62154;DHT22;48140;45.486;9.226;2024-02-21T14:57:43;19.70;49.40
62154;DHT22;48140;45.486;9.226;2024-02-21T15:00:10;19.80;49.50
62154;DHT22;48140;45.486;9.226;2024-02-21T15:02:36;19.40;50.10
62154;DHT22;48140;45.486;9.226;2024-02-21T15:05:02;19.30;50.30
62154;DHT22;48140;45.486;9.226;2024-02-21T15:07:29;19.00;50.80
62154;DHT22;48140;45.486;9.226;2024-02-21T15:09:54;19.10;51.20
62154;DHT22;48140;45.486;9.226;2024-02-21T15:12:20;19.10;51.20
62154;DHT22;48140;45.486;9.226;2024-02-21T15:14:47;19.00;51.00
62154;DHT22;48140;45.486;9.226;2024-02-21T15:17:13;19.10;51.00
62154;DHT22;48140;45.486;9.226;2024-02-21T15:19:39;19.40;50.20
62154;DHT22;48140;45.486;9.226;2024-02-21T15:22:11;19.50;49.90
62154;DHT22;48140;45.486;9.226;2024-02-21T15:24:40;19.50;50.20
62154;DHT22;48140;45.486;9.226;2024-02-21T15:27:06;19.80;49.30
62154;DHT22;48140;45.486;9.226;2024-02-21T15:29:33;20.00;48.70
62154;DHT22;48140;45.486;9.226;2024-02-21T15:31:59;19.90;48.90
62154;DHT22;48140;45.486;9.226;2024-02-21T15:34:24;19.90;49.20